Hurlburt Field, Florida
Current Conditions -  °F | °C
As of 5:58 PM on Friday 31 Oct 2014 (Local Time) from KHRT Reporting Station
Few Clouds Few Clouds  
Wind Chill: 69°   Ceiling: Unl
Heat Index: 69°   Visibility: 10mi
Dew Point: 44°   Wind: 6mph
Humidity: 40%   Direction: 320°NW
Pressure: 29.91"   Gusts: NA
Location:  30.43°N, 86.69°W
Report Text: KHRT 312258Z AUTO 32005KT 10SM FEW100 20/06 A2991 RMK AO2 SLP130 T02030064 RVRNO $
Loading
Personal Weather Stations






























Interactive Weather Map
Tropical Storm Tracking
New forecast layout! Learn more

10-Day Weather Forecast

Advertisements
Track Severe Weather on mobile